WXM80 ListenWXM80 Stop

You find our weather info also at:

UK Metoffice

WeatherCloud

Weather Underground

Northeastern Weather Network

AWEKAS

Citizen Weather Observer Program (CWOP)

HAMweather, WeatherForYou, PWS Weather


Weather Underground History page Text

Daily Summary for July 13, 2017 Units:  Both    English   Metric
« Previous Day
Next Day »
Daily Weekly Monthly Yearly Custom
  High: Low: Average:
Temperature: 97.2 °F /  36.2 °C 68.8 °F /  20.4 °C 80.6 °F /  27 °C
Dew Point: 78.4 °F /  25.8 °C 66.7 °F /  19.3 °C 73.4 °F /  23 °C
Humidity: 96 % 51 % 81 %
Wind Speed: 9.8 mph /  15.8 km/h - 1.4 mph /  2.3 km/h
Wind Gust: 15.0 mph /  24.1 km/h - -
Wind:- - SW
Pressure: 30.02 in /  1016.5 hPa 29.88 in /  1011.7 hPa -
Precipitation: 0.02 in /  0.51 mm    
Historical Graphs
 
 
Tabular Data for July 13, 2017
Time Temperature Dew Point Pressure Wind Wind Speed Wind Gust Humidity Rainfall Rate (Hourly)
00:00 75.3 °F /  24.1 °C 72.2 °F /  22.3 °C 29.94 in /  1013.8 hPa WSW 0.3 mph /  0.5 km/h 1.2 mph /  1.9 km/h 90 % 0.00 in /  0 mm
00:05 75.2 °F /  24 °C 72.4 °F /  22.4 °C 29.94 in /  1013.8 hPa WSW 0.4 mph /  0.6 km/h 1.2 mph /  1.9 km/h 91 % 0.00 in /  0 mm
00:10 75.2 °F /  24 °C 72.4 °F /  22.4 °C 29.94 in /  1013.8 hPa WSW 1.3 mph /  2.1 km/h 3.0 mph /  4.8 km/h 91 % 0.00 in /  0 mm
00:15 75.2 °F /  24 °C 72.4 °F /  22.4 °C 29.94 in /  1013.8 hPa WSW 0.5 mph /  0.8 km/h 2.3 mph /  3.7 km/h 91 % 0.00 in /  0 mm
00:20 75.1 °F /  23.9 °C 72.6 °F /  22.6 °C 29.94 in /  1013.8 hPa WSW 0.2 mph /  0.3 km/h 1.2 mph /  1.9 km/h 92 % 0.00 in /  0 mm
00:25 75.1 °F /  23.9 °C 72.6 °F /  22.6 °C 29.94 in /  1013.8 hPa WSW 0.3 mph /  0.5 km/h 2.3 mph /  3.7 km/h 92 % 0.00 in /  0 mm
00:30 75.1 °F /  23.9 °C 72.6 °F /  22.6 °C 29.94 in /  1013.8 hPa WSW 0.3 mph /  0.5 km/h 2.0 mph /  3.2 km/h 92 % 0.00 in /  0 mm
00:35 75.1 °F /  23.9 °C 72.6 °F /  22.6 °C 29.94 in /  1013.8 hPa WSW 0.1 mph /  0.2 km/h 1.2 mph /  1.9 km/h 92 % 0.00 in /  0 mm
00:40 75.1 °F /  23.9 °C 72.6 °F /  22.6 °C 29.94 in /  1013.8 hPa WSW 0.4 mph /  0.6 km/h 2.3 mph /  3.7 km/h 92 % 0.00 in /  0 mm
00:45 75.0 °F /  23.9 °C 72.5 °F /  22.5 °C 29.94 in /  1013.8 hPa WSW 0.7 mph /  1.1 km/h 3.0 mph /  4.8 km/h 92 % 0.00 in /  0 mm
00:50 75.0 °F /  23.9 °C 72.5 °F /  22.5 °C 29.94 in /  1013.8 hPa WSW 0.7 mph /  1.1 km/h 3.0 mph /  4.8 km/h 92 % 0.00 in /  0 mm
00:55 74.9 °F /  23.8 °C 72.4 °F /  22.4 °C 29.94 in /  1013.8 hPa WSW 0.1 mph /  0.2 km/h 1.2 mph /  1.9 km/h 92 % 0.00 in /  0 mm
01:00 75.0 °F /  23.9 °C 72.8 °F /  22.7 °C 29.94 in /  1013.8 hPa WSW 0.6 mph /  1 km/h 2.3 mph /  3.7 km/h 93 % 0.00 in /  0 mm
01:05 75.0 °F /  23.9 °C 72.8 °F /  22.7 °C 29.93 in /  1013.4 hPa Calm   2.3 mph /  3.7 km/h 93 % 0.00 in /  0 mm
01:10 75.0 °F /  23.9 °C 72.8 °F /  22.7 °C 29.93 in /  1013.4 hPa WSW 0.1 mph /  0.2 km/h 1.2 mph /  1.9 km/h 93 % 0.00 in /  0 mm
01:15 74.9 °F /  23.8 °C 72.7 °F /  22.6 °C 29.93 in /  1013.4 hPa Calm     93 % 0.00 in /  0 mm
01:20 74.9 °F /  23.8 °C 72.7 °F /  22.6 °C 29.93 in /  1013.4 hPa WSW 0.2 mph /  0.3 km/h 1.0 mph /  1.6 km/h 93 % 0.00 in /  0 mm
01:25 74.9 °F /  23.8 °C 72.7 °F /  22.6 °C 29.93 in /  1013.4 hPa WSW 0.1 mph /  0.2 km/h 1.2 mph /  1.9 km/h 93 % 0.00 in /  0 mm
01:30 74.9 °F /  23.8 °C 72.7 °F /  22.6 °C 29.93 in /  1013.4 hPa WSW 0.8 mph /  1.3 km/h 1.2 mph /  1.9 km/h 93 % 0.00 in /  0 mm
01:35 74.9 °F /  23.8 °C 72.7 °F /  22.6 °C 29.93 in /  1013.4 hPa WSW 0.8 mph /  1.3 km/h 1.2 mph /  1.9 km/h 93 % 0.00 in /  0 mm
01:40 74.9 °F /  23.8 °C 72.7 °F /  22.6 °C 29.93 in /  1013.4 hPa WSW 0.7 mph /  1.1 km/h 1.2 mph /  1.9 km/h 93 % 0.00 in /  0 mm
01:46 74.9 °F /  23.8 °C 72.7 °F /  22.6 °C 29.93 in /  1013.4 hPa WSW 0.9 mph /  1.4 km/h   93 % 0.00 in /  0 mm
01:51 74.9 °F /  23.8 °C 73.1 °F /  22.8 °C 29.93 in /  1013.4 hPa Calm   2.0 mph /  3.2 km/h 94 % 0.00 in /  0 mm
01:54 74.9 °F /  23.8 °C 73.1 °F /  22.8 °C 29.93 in /  1013.4 hPa WSW 0.3 mph /  0.5 km/h 1.2 mph /  1.9 km/h 94 % 0.00 in /  0 mm
01:59 75.0 °F /  23.9 °C 73.2 °F /  22.9 °C 29.93 in /  1013.4 hPa Calm   2.3 mph /  3.7 km/h 94 % 0.00 in /  0 mm
02:04 75.0 °F /  23.9 °C 73.2 °F /  22.9 °C 29.93 in /  1013.4 hPa WSW 0.7 mph /  1.1 km/h 2.3 mph /  3.7 km/h 94 % 0.00 in /  0 mm
02:09 75.0 °F /  23.9 °C 73.2 °F /  22.9 °C 29.93 in /  1013.4 hPa WSW 0.9 mph /  1.4 km/h 3.5 mph /  5.6 km/h 94 % 0.00 in /  0 mm
02:14 75.1 °F /  23.9 °C 73.3 °F /  22.9 °C 29.93 in /  1013.4 hPa WSW 1.0 mph /  1.6 km/h 3.5 mph /  5.6 km/h 94 % 0.00 in /  0 mm
02:19 75.1 °F /  23.9 °C 73.3 °F /  22.9 °C 29.93 in /  1013.4 hPa Calm     94 % 0.00 in /  0 mm
02:24 75.1 °F /  23.9 °C 73.3 °F /  22.9 °C 29.93 in /  1013.4 hPa Calm     94 % 0.00 in /  0 mm
02:29 75.1 °F /  23.9 °C 73.3 °F /  22.9 °C 29.93 in /  1013.4 hPa Calm     94 % 0.00 in /  0 mm
02:34 75.2 °F /  24 °C 73.4 °F /  23 °C 29.93 in /  1013.4 hPa Calm   1.2 mph /  1.9 km/h 94 % 0.00 in /  0 mm
02:39 75.2 °F /  24 °C 73.4 °F /  23 °C 29.93 in /  1013.4 hPa Calm     94 % 0.00 in /  0 mm
02:44 75.2 °F /  24 °C 73.4 °F /  23 °C 29.93 in /  1013.4 hPa Calm     94 % 0.00 in /  0 mm
02:49 75.2 °F /  24 °C 73.0 °F /  22.8 °C 29.93 in /  1013.4 hPa Calm     93 % 0.00 in /  0 mm
02:54 75.2 °F /  24 °C 73.0 °F /  22.8 °C 29.93 in /  1013.4 hPa Calm     93 % 0.00 in /  0 mm
02:59 75.2 °F /  24 °C 73.0 °F /  22.8 °C 29.93 in /  1013.4 hPa Calm     93 % 0.00 in /  0 mm
03:04 75.1 °F /  23.9 °C 72.9 °F /  22.7 °C 29.93 in /  1013.4 hPa Calm     93 % 0.00 in /  0 mm
03:09 75.1 °F /  23.9 °C 72.9 °F /  22.7 °C 29.94 in /  1013.8 hPa Calm     93 % 0.00 in /  0 mm
03:15 75.0 °F /  23.9 °C 72.8 °F /  22.7 °C 29.94 in /  1013.8 hPa Calm     93 % 0.00 in /  0 mm
03:20 74.9 °F /  23.8 °C 72.4 °F /  22.4 °C 29.94 in /  1013.8 hPa Calm     92 % 0.00 in /  0 mm
03:25 74.9 °F /  23.8 °C 72.4 °F /  22.4 °C 29.94 in /  1013.8 hPa Calm     92 % 0.00 in /  0 mm
03:30 74.8 °F /  23.8 °C 72.3 °F /  22.4 °C 29.94 in /  1013.8 hPa Calm     92 % 0.00 in /  0 mm
03:35 74.7 °F /  23.7 °C 72.2 °F /  22.3 °C 29.94 in /  1013.8 hPa Calm     92 % 0.00 in /  0 mm
03:40 74.6 °F /  23.7 °C 72.1 °F /  22.3 °C 29.93 in /  1013.4 hPa Calm     92 % 0.00 in /  0 mm
03:45 74.6 °F /  23.7 °C 72.1 °F /  22.3 °C 29.93 in /  1013.4 hPa Calm     92 % 0.00 in /  0 mm
03:50 74.5 °F /  23.6 °C 72.0 °F /  22.2 °C 29.93 in /  1013.4 hPa Calm     92 % 0.00 in /  0 mm
03:55 74.5 °F /  23.6 °C 72.0 °F /  22.2 °C 29.92 in /  1013.1 hPa Calm     92 % 0.00 in /  0 mm
04:00 74.4 °F /  23.6 °C 71.9 °F /  22.2 °C 29.92 in /  1013.1 hPa Calm     92 % 0.00 in /  0 mm
04:05 74.4 °F /  23.6 °C 72.2 °F /  22.3 °C 29.92 in /  1013.1 hPa Calm     93 % 0.00 in /  0 mm
04:10 74.3 °F /  23.5 °C 72.1 °F /  22.3 °C 29.92 in /  1013.1 hPa Calm     93 % 0.00 in /  0 mm
04:15 74.3 °F /  23.5 °C 72.1 °F /  22.3 °C 29.92 in /  1013.1 hPa Calm     93 % 0.00 in /  0 mm
04:20 74.2 °F /  23.4 °C 72.0 °F /  22.2 °C 29.92 in /  1013.1 hPa Calm     93 % 0.00 in /  0 mm
04:25 74.1 °F /  23.4 °C 71.9 °F /  22.2 °C 29.93 in /  1013.4 hPa Calm     93 % 0.00 in /  0 mm
04:30 74.1 °F /  23.4 °C 71.9 °F /  22.2 °C 29.93 in /  1013.4 hPa Calm     93 % 0.00 in /  0 mm
04:35 74.1 °F /  23.4 °C 71.9 °F /  22.2 °C 29.93 in /  1013.4 hPa Calm   1.2 mph /  1.9 km/h 93 % 0.00 in /  0 mm
04:40 74.0 °F /  23.3 °C 71.8 °F /  22.1 °C 29.93 in /  1013.4 hPa Calm     93 % 0.00 in /  0 mm
04:45 74.0 °F /  23.3 °C 71.8 °F /  22.1 °C 29.93 in /  1013.4 hPa Calm     93 % 0.00 in /  0 mm
04:50 74.0 °F /  23.3 °C 71.8 °F /  22.1 °C 29.93 in /  1013.4 hPa Calm     93 % 0.00 in /  0 mm
04:55 73.9 °F /  23.3 °C 71.7 °F /  22.1 °C 29.92 in /  1013.1 hPa Calm     93 % 0.00 in /  0 mm
05:00 73.9 °F /  23.3 °C 72.1 °F /  22.3 °C 29.92 in /  1013.1 hPa Calm   1.2 mph /  1.9 km/h 94 % 0.00 in /  0 mm
05:05 73.9 °F /  23.3 °C 72.1 °F /  22.3 °C 29.93 in /  1013.4 hPa Calm     94 % 0.00 in /  0 mm
05:10 73.9 °F /  23.3 °C 72.1 °F /  22.3 °C 29.93 in /  1013.4 hPa Calm     94 % 0.00 in /  0 mm
05:15 73.9 °F /  23.3 °C 72.1 °F /  22.3 °C 29.93 in /  1013.4 hPa Calm     94 % 0.00 in /  0 mm
05:20 74.0 °F /  23.3 °C 72.2 °F /  22.3 °C 29.94 in /  1013.8 hPa Calm     94 % 0.00 in /  0 mm
05:25 74.0 °F /  23.3 °C 72.5 °F /  22.5 °C 29.93 in /  1013.4 hPa Calm     95 % 0.00 in /  0 mm
05:30 74.0 °F /  23.3 °C 72.5 °F /  22.5 °C 29.94 in /  1013.8 hPa Calm   2.3 mph /  3.7 km/h 95 % 0.00 in /  0 mm
05:35 74.1 °F /  23.4 °C 72.6 °F /  22.6 °C 29.94 in /  1013.8 hPa WSW 0.1 mph /  0.2 km/h 1.2 mph /  1.9 km/h 95 % 0.00 in /  0 mm
05:40 74.2 °F /  23.4 °C 72.7 °F /  22.6 °C 29.94 in /  1013.8 hPa WSW 0.9 mph /  1.4 km/h 2.3 mph /  3.7 km/h 95 % 0.00 in /  0 mm
05:45 74.2 °F /  23.4 °C 72.7 °F /  22.6 °C 29.94 in /  1013.8 hPa WSW 0.1 mph /  0.2 km/h 1.2 mph /  1.9 km/h 95 % 0.00 in /  0 mm
05:50 74.3 °F /  23.5 °C 72.8 °F /  22.7 °C 29.94 in /  1013.8 hPa WSW 1.2 mph /  1.9 km/h 2.3 mph /  3.7 km/h 95 % 0.00 in /  0 mm
05:55 74.4 °F /  23.6 °C 72.9 °F /  22.7 °C 29.94 in /  1013.8 hPa WSW 0.1 mph /  0.2 km/h 1.2 mph /  1.9 km/h 95 % 0.00 in /  0 mm
06:00 74.4 °F /  23.6 °C 72.9 °F /  22.7 °C 29.94 in /  1013.8 hPa Calm   1.2 mph /  1.9 km/h 95 % 0.00 in /  0 mm
06:06 74.5 °F /  23.6 °C 73.0 °F /  22.8 °C 29.94 in /  1013.8 hPa Calm   3.0 mph /  4.8 km/h 95 % 0.00 in /  0 mm
06:11 74.6 °F /  23.7 °C 73.4 °F /  23 °C 29.94 in /  1013.8 hPa Calm   7.0 mph /  11.3 km/h 96 % 0.00 in /  0 mm
06:16 74.7 °F /  23.7 °C 73.2 °F /  22.9 °C 29.94 in /  1013.8 hPa Calm   2.0 mph /  3.2 km/h 95 % 0.00 in /  0 mm
06:21 74.8 °F /  23.8 °C 73.3 °F /  22.9 °C 29.94 in /  1013.8 hPa SW 1.3 mph /  2.1 km/h 3.5 mph /  5.6 km/h 95 % 0.00 in /  0 mm
06:26 74.9 °F /  23.8 °C 73.4 °F /  23 °C 29.95 in /  1014.1 hPa WSW 0.8 mph /  1.3 km/h 3.5 mph /  5.6 km/h 95 % 0.00 in /  0 mm
06:31 75.0 °F /  23.9 °C 73.8 °F /  23.2 °C 29.94 in /  1013.8 hPa WSW 0.3 mph /  0.5 km/h 1.2 mph /  1.9 km/h 96 % 0.00 in /  0 mm
06:36 75.1 °F /  23.9 °C 73.9 °F /  23.3 °C 29.94 in /  1013.8 hPa Calm   3.5 mph /  5.6 km/h 96 % 0.00 in /  0 mm
06:41 75.2 °F /  24 °C 73.7 °F /  23.2 °C 29.94 in /  1013.8 hPa WSW 1.9 mph /  3.1 km/h 3.5 mph /  5.6 km/h 95 % 0.00 in /  0 mm
06:46 75.3 °F /  24.1 °C 73.8 °F /  23.2 °C 29.94 in /  1013.8 hPa SW 1.7 mph /  2.7 km/h 4.6 mph /  7.4 km/h 95 % 0.00 in /  0 mm
06:52 75.4 °F /  24.1 °C 73.9 °F /  23.3 °C 29.94 in /  1013.8 hPa SW 0.1 mph /  0.2 km/h 3.5 mph /  5.6 km/h 95 % 0.00 in /  0 mm
06:57 75.5 °F /  24.2 °C 74.0 °F /  23.3 °C 29.94 in /  1013.8 hPa SW 0.8 mph /  1.3 km/h 3.5 mph /  5.6 km/h 95 % 0.00 in /  0 mm
07:02 75.6 °F /  24.2 °C 74.1 °F /  23.4 °C 29.94 in /  1013.8 hPa WSW 0.6 mph /  1 km/h 2.3 mph /  3.7 km/h 95 % 0.00 in /  0 mm
07:07 75.8 °F /  24.3 °C 74.3 °F /  23.5 °C 29.93 in /  1013.4 hPa SW 1.7 mph /  2.7 km/h 3.5 mph /  5.6 km/h 95 % 0.00 in /  0 mm
07:12 76.0 °F /  24.4 °C 74.5 °F /  23.6 °C 29.93 in /  1013.4 hPa SW 1.2 mph /  1.9 km/h 3.5 mph /  5.6 km/h 95 % 0.00 in /  0 mm
07:17 76.2 °F /  24.6 °C 74.7 °F /  23.7 °C 29.93 in /  1013.4 hPa SW 0.4 mph /  0.6 km/h 2.3 mph /  3.7 km/h 95 % 0.00 in /  0 mm
07:22 76.4 °F /  24.7 °C 74.9 °F /  23.8 °C 29.93 in /  1013.4 hPa WSW 0.1 mph /  0.2 km/h 2.3 mph /  3.7 km/h 95 % 0.00 in /  0 mm
07:27 76.6 °F /  24.8 °C 74.7 °F /  23.7 °C 29.93 in /  1013.4 hPa SW 1.4 mph /  2.3 km/h 5.8 mph /  9.3 km/h 94 % 0.00 in /  0 mm
07:32 76.9 °F /  24.9 °C 75.0 °F /  23.9 °C 29.93 in /  1013.4 hPa SW 0.9 mph /  1.4 km/h 3.5 mph /  5.6 km/h 94 % 0.00 in /  0 mm
07:37 77.1 °F /  25.1 °C 74.9 °F /  23.8 °C 29.93 in /  1013.4 hPa SW 1.9 mph /  3.1 km/h 6.0 mph /  9.7 km/h 93 % 0.00 in /  0 mm
07:42 77.4 °F /  25.2 °C 75.2 °F /  24 °C 29.93 in /  1013.4 hPa WSW 0.8 mph /  1.3 km/h 3.5 mph /  5.6 km/h 93 % 0.00 in /  0 mm
07:47 77.6 °F /  25.3 °C 75.1 °F /  23.9 °C 29.93 in /  1013.4 hPa WSW 1.3 mph /  2.1 km/h 3.5 mph /  5.6 km/h 92 % 0.00 in /  0 mm
07:49 77.8 °F /  25.4 °C 75.3 °F /  24.1 °C 29.93 in /  1013.4 hPa WSW 0.2 mph /  0.3 km/h 2.0 mph /  3.2 km/h 92 % 0.00 in /  0 mm
07:54 78.0 °F /  25.6 °C 75.2 °F /  24 °C 29.93 in /  1013.4 hPa SW 2.7 mph /  4.3 km/h 6.9 mph /  11.1 km/h 91 % 0.00 in /  0 mm
07:59 78.3 °F /  25.7 °C 75.5 °F /  24.2 °C 29.93 in /  1013.4 hPa SW 1.8 mph /  2.9 km/h 3.5 mph /  5.6 km/h 91 % 0.00 in /  0 mm
08:04 78.5 °F /  25.8 °C 75.3 °F /  24.1 °C 29.93 in /  1013.4 hPa SW 1.6 mph /  2.6 km/h 3.5 mph /  5.6 km/h 90 % 0.00 in /  0 mm
08:09 78.8 °F /  26 °C 75.6 °F /  24.2 °C 29.93 in /  1013.4 hPa West 0.5 mph /  0.8 km/h 3.5 mph /  5.6 km/h 90 % 0.00 in /  0 mm
08:14 79.0 °F /  26.1 °C 75.5 °F /  24.2 °C 29.93 in /  1013.4 hPa SW 1.8 mph /  2.9 km/h 4.6 mph /  7.4 km/h 89 % 0.00 in /  0 mm
08:19 79.3 °F /  26.3 °C 75.1 °F /  23.9 °C 29.93 in /  1013.4 hPa SW 2.6 mph /  4.2 km/h 4.6 mph /  7.4 km/h 87 % 0.00 in /  0 mm
08:20 79.3 °F /  26.3 °C 75.1 °F /  23.9 °C 29.93 in /  1013.4 hPa WSW 1.9 mph /  3.1 km/h 4.6 mph /  7.4 km/h 87 % 0.00 in /  0 mm
08:25 79.7 °F /  26.5 °C 75.1 °F /  23.9 °C 29.93 in /  1013.4 hPa SW 1.6 mph /  2.6 km/h 4.6 mph /  7.4 km/h 86 % 0.00 in /  0 mm
08:30 80.0 °F /  26.7 °C 75.1 °F /  23.9 °C 29.93 in /  1013.4 hPa SW 0.3 mph /  0.5 km/h 4.6 mph /  7.4 km/h 85 % 0.00 in /  0 mm
08:36 80.3 °F /  26.8 °C 75.0 °F /  23.9 °C 29.93 in /  1013.4 hPa SW 3.0 mph /  4.8 km/h 10.0 mph /  16.1 km/h 84 % 0.00 in /  0 mm
08:41 80.7 °F /  27.1 °C 75.0 °F /  23.9 °C 29.93 in /  1013.4 hPa SW 2.0 mph /  3.2 km/h 9.0 mph /  14.5 km/h 83 % 0.00 in /  0 mm
08:46 81.1 °F /  27.3 °C 75.8 °F /  24.3 °C 29.93 in /  1013.4 hPa South 3.0 mph /  4.8 km/h 5.0 mph /  8 km/h 84 % 0.00 in /  0 mm
08:50 81.4 °F /  27.4 °C 75.4 °F /  24.1 °C 29.93 in /  1013.4 hPa SW 4.6 mph /  7.4 km/h 5.0 mph /  8 km/h 82 % 0.00 in /  0 mm
08:55 81.7 °F /  27.6 °C 74.9 °F /  23.8 °C 29.93 in /  1013.4 hPa WSW 2.9 mph /  4.7 km/h 7.0 mph /  11.3 km/h 80 % 0.00 in /  0 mm
09:01 82.0 °F /  27.8 °C 75.2 °F /  24 °C 29.93 in /  1013.4 hPa WSW 1.0 mph /  1.6 km/h 6.9 mph /  11.1 km/h 80 % 0.00 in /  0 mm
09:06 82.3 °F /  27.9 °C 75.1 °F /  23.9 °C 29.94 in /  1013.8 hPa WSW 6.1 mph /  9.8 km/h 10.4 mph /  16.7 km/h 79 % 0.00 in /  0 mm
09:11 82.7 °F /  28.2 °C 75.1 °F /  23.9 °C 29.93 in /  1013.4 hPa WSW 4.1 mph /  6.6 km/h 6.9 mph /  11.1 km/h 78 % 0.00 in /  0 mm
09:16 83.0 °F /  28.3 °C 75.0 °F /  23.9 °C 29.93 in /  1013.4 hPa WSW 4.8 mph /  7.7 km/h 12.0 mph /  19.3 km/h 77 % 0.00 in /  0 mm
09:21 83.2 °F /  28.4 °C 74.8 °F /  23.8 °C 29.93 in /  1013.4 hPa WSW 2.2 mph /  3.5 km/h 10.4 mph /  16.7 km/h 76 % 0.00 in /  0 mm
09:26 83.5 °F /  28.6 °C 75.1 °F /  23.9 °C 29.93 in /  1013.4 hPa SSW 3.5 mph /  5.6 km/h 6.9 mph /  11.1 km/h 76 % 0.00 in /  0 mm
09:31 83.8 °F /  28.8 °C 75.4 °F /  24.1 °C 29.93 in /  1013.4 hPa WNW 0.8 mph /  1.3 km/h 6.9 mph /  11.1 km/h 76 % 0.00 in /  0 mm
09:36 84.1 °F /  28.9 °C 75.7 °F /  24.3 °C 29.93 in /  1013.4 hPa SW 2.7 mph /  4.3 km/h 8.1 mph /  13 km/h 76 % 0.00 in /  0 mm
09:41 84.4 °F /  29.1 °C 75.2 °F /  24 °C 29.93 in /  1013.4 hPa WSW 4.6 mph /  7.4 km/h 10.0 mph /  16.1 km/h 74 % 0.00 in /  0 mm
09:46 84.8 °F /  29.3 °C 76.4 °F /  24.7 °C 29.92 in /  1013.1 hPa WNW 3.5 mph /  5.6 km/h 8.1 mph /  13 km/h 76 % 0.00 in /  0 mm
09:51 85.3 °F /  29.6 °C 76.1 °F /  24.5 °C 29.92 in /  1013.1 hPa WSW 7.0 mph /  11.3 km/h 8.1 mph /  13 km/h 74 % 0.00 in /  0 mm
09:56 85.9 °F /  29.9 °C 76.2 °F /  24.6 °C 29.92 in /  1013.1 hPa SW 1.6 mph /  2.6 km/h 3.5 mph /  5.6 km/h 73 % 0.00 in /  0 mm
10:01 86.5 °F /  30.3 °C 76.0 °F /  24.4 °C 29.92 in /  1013.1 hPa WSW 4.5 mph /  7.2 km/h 8.1 mph /  13 km/h 71 % 0.00 in /  0 mm
10:06 87.3 °F /  30.7 °C 75.9 °F /  24.4 °C 29.92 in /  1013.1 hPa WSW 2.4 mph /  3.9 km/h 3.5 mph /  5.6 km/h 69 % 0.00 in /  0 mm
10:11 88.1 °F /  31.2 °C 76.2 °F /  24.6 °C 29.91 in /  1012.8 hPa WSW 4.1 mph /  6.6 km/h 9.2 mph /  14.8 km/h 68 % 0.00 in /  0 mm
10:16 88.7 °F /  31.5 °C 75.4 °F /  24.1 °C 29.92 in /  1013.1 hPa West 4.5 mph /  7.2 km/h 11.5 mph /  18.5 km/h 65 % 0.00 in /  0 mm
10:21 89.3 °F /  31.8 °C 76.0 °F /  24.4 °C 29.92 in /  1013.1 hPa WSW 3.6 mph /  5.8 km/h 8.1 mph /  13 km/h 65 % 0.00 in /  0 mm
10:26 90.0 °F /  32.2 °C 76.6 °F /  24.8 °C 29.92 in /  1013.1 hPa SW 3.1 mph /  5 km/h 6.9 mph /  11.1 km/h 65 % 0.00 in /  0 mm
10:31 90.7 °F /  32.6 °C 77.3 °F /  25.2 °C 29.92 in /  1013.1 hPa WSW 2.3 mph /  3.7 km/h 4.6 mph /  7.4 km/h 65 % 0.00 in /  0 mm
10:36 91.2 °F /  32.9 °C 75.9 °F /  24.4 °C 29.92 in /  1013.1 hPa SW 3.8 mph /  6.1 km/h 9.2 mph /  14.8 km/h 61 % 0.00 in /  0 mm
10:41 91.6 °F /  33.1 °C 75.7 °F /  24.3 °C 29.92 in /  1013.1 hPa WSW 2.9 mph /  4.7 km/h 15.0 mph /  24.1 km/h 60 % 0.00 in /  0 mm
10:43 91.7 °F /  33.2 °C 75.3 °F /  24.1 °C 29.92 in /  1013.1 hPa WSW 4.9 mph /  7.9 km/h 6.9 mph /  11.1 km/h 59 % 0.00 in /  0 mm
10:49 92.0 °F /  33.3 °C 75.6 °F /  24.2 °C 29.92 in /  1013.1 hPa West 4.6 mph /  7.4 km/h 6.9 mph /  11.1 km/h 59 % 0.00 in /  0 mm
10:54 92.3 °F /  33.5 °C 77.4 °F /  25.2 °C 29.92 in /  1013.1 hPa WSW 3.7 mph /  6 km/h 5.0 mph /  8 km/h 62 % 0.00 in /  0 mm
10:59 92.7 °F /  33.7 °C 76.3 °F /  24.6 °C 29.92 in /  1013.1 hPa WSW 3.9 mph /  6.3 km/h 8.1 mph /  13 km/h 59 % 0.00 in /  0 mm
11:01 92.9 °F /  33.8 °C 77.0 °F /  25 °C 29.91 in /  1012.8 hPa SW 3.2 mph /  5.1 km/h 8.1 mph /  13 km/h 60 % 0.00 in /  0 mm
11:07 93.1 °F /  33.9 °C 75.6 °F /  24.2 °C 29.92 in /  1013.1 hPa SW 3.8 mph /  6.1 km/h 11.5 mph /  18.5 km/h 57 % 0.00 in /  0 mm
11:12 93.5 °F /  34.2 °C 77.0 °F /  25 °C 29.92 in /  1013.1 hPa SW 5.5 mph /  8.9 km/h 8.1 mph /  13 km/h 59 % 0.00 in /  0 mm
11:17 93.8 °F /  34.3 °C 76.3 °F /  24.6 °C 29.91 in /  1012.8 hPa WSW 5.3 mph /  8.5 km/h 6.9 mph /  11.1 km/h 57 % 0.00 in /  0 mm
11:22 94.1 °F /  34.5 °C 78.1 °F /  25.6 °C 29.91 in /  1012.8 hPa West 2.8 mph /  4.5 km/h 5.8 mph /  9.3 km/h 60 % 0.00 in /  0 mm
11:27 94.2 °F /  34.6 °C 76.1 °F /  24.5 °C 29.91 in /  1012.8 hPa West 3.1 mph /  5 km/h 4.6 mph /  7.4 km/h 56 % 0.00 in /  0 mm
11:32 94.4 °F /  34.7 °C 75.7 °F /  24.3 °C 29.91 in /  1012.8 hPa SW 4.5 mph /  7.2 km/h 4.6 mph /  7.4 km/h 55 % 0.00 in /  0 mm
11:37 94.6 °F /  34.8 °C 75.9 °F /  24.4 °C 29.91 in /  1012.8 hPa WNW 2.5 mph /  4 km/h 6.9 mph /  11.1 km/h 55 % 0.00 in /  0 mm
11:42 94.7 °F /  34.8 °C 77.1 °F /  25.1 °C 29.91 in /  1012.8 hPa WNW 5.6 mph /  9 km/h 8.1 mph /  13 km/h 57 % 0.00 in /  0 mm
11:47 94.9 °F /  34.9 °C 76.7 °F /  24.8 °C 29.91 in /  1012.8 hPa WNW 2.0 mph /  3.2 km/h 5.0 mph /  8 km/h 56 % 0.00 in /  0 mm
11:52 95.3 °F /  35.2 °C 77.1 °F /  25.1 °C 29.91 in /  1012.8 hPa West 5.0 mph /  8 km/h 8.1 mph /  13 km/h 56 % 0.00 in /  0 mm
11:57 95.6 °F /  35.3 °C 76.9 °F /  24.9 °C 29.91 in /  1012.8 hPa WSW 2.3 mph /  3.7 km/h 6.9 mph /  11.1 km/h 55 % 0.00 in /  0 mm
12:02 95.8 °F /  35.4 °C 78.1 °F /  25.6 °C 29.90 in /  1012.4 hPa West 2.6 mph /  4.2 km/h 3.5 mph /  5.6 km/h 57 % 0.00 in /  0 mm
12:07 96.0 °F /  35.6 °C 76.1 °F /  24.5 °C 29.90 in /  1012.4 hPa WNW 1.1 mph /  1.8 km/h 3.5 mph /  5.6 km/h 53 % 0.00 in /  0 mm
12:12 96.2 °F /  35.7 °C 76.9 °F /  24.9 °C 29.90 in /  1012.4 hPa NW 2.2 mph /  3.5 km/h 4.6 mph /  7.4 km/h 54 % 0.00 in /  0 mm
12:17 96.4 °F /  35.8 °C 76.5 °F /  24.7 °C 29.90 in /  1012.4 hPa South 1.3 mph /  2.1 km/h 5.0 mph /  8 km/h 53 % 0.00 in /  0 mm
12:22 96.6 °F /  35.9 °C 76.7 °F /  24.8 °C 29.90 in /  1012.4 hPa West 3.3 mph /  5.3 km/h 6.9 mph /  11.1 km/h 53 % 0.00 in /  0 mm
12:27 96.9 °F /  36.1 °C 76.4 °F /  24.7 °C 29.90 in /  1012.4 hPa West 3.1 mph /  5 km/h 6.9 mph /  11.1 km/h 52 % 0.00 in /  0 mm
12:32 97.1 °F /  36.2 °C 76.0 °F /  24.4 °C 29.90 in /  1012.4 hPa WSW 4.8 mph /  7.7 km/h 6.9 mph /  11.1 km/h 51 % 0.00 in /  0 mm
12:37 97.1 °F /  36.2 °C 76.5 °F /  24.7 °C 29.90 in /  1012.4 hPa West 4.4 mph /  7.1 km/h 8.0 mph /  12.9 km/h 52 % 0.00 in /  0 mm
12:42 97.1 °F /  36.2 °C 77.1 °F /  25.1 °C 29.90 in /  1012.4 hPa WNW 4.8 mph /  7.7 km/h 7.0 mph /  11.3 km/h 53 % 0.00 in /  0 mm
12:47 97.1 °F /  36.2 °C 76.5 °F /  24.7 °C 29.90 in /  1012.4 hPa West 4.9 mph /  7.9 km/h 8.0 mph /  12.9 km/h 52 % 0.00 in /  0 mm
12:52 97.1 °F /  36.2 °C 77.1 °F /  25.1 °C 29.90 in /  1012.4 hPa NW 2.1 mph /  3.4 km/h 2.3 mph /  3.7 km/h 53 % 0.00 in /  0 mm
12:55 97.2 °F /  36.2 °C 77.8 °F /  25.4 °C 29.90 in /  1012.4 hPa WNW 1.2 mph /  1.9 km/h 3.0 mph /  4.8 km/h 54 % 0.00 in /  0 mm
13:00 97.0 °F /  36.1 °C 75.9 °F /  24.4 °C 29.90 in /  1012.4 hPa West 6.3 mph /  10.1 km/h 8.1 mph /  13 km/h 51 % 0.00 in /  0 mm
13:05 96.8 °F /  36 °C 78.0 °F /  25.6 °C 29.90 in /  1012.4 hPa Calm   3.5 mph /  5.6 km/h 55 % 0.00 in /  0 mm
13:10 96.7 °F /  35.9 °C 78.4 °F /  25.8 °C 29.90 in /  1012.4 hPa SSW 1.7 mph /  2.7 km/h 5.0 mph /  8 km/h 56 % 0.00 in /  0 mm
13:15 96.5 °F /  35.8 °C 76.6 °F /  24.8 °C 29.90 in /  1012.4 hPa West 0.7 mph /  1.1 km/h 6.9 mph /  11.1 km/h 53 % 0.00 in /  0 mm
13:20 96.2 °F /  35.7 °C 76.3 °F /  24.6 °C 29.90 in /  1012.4 hPa WNW 0.6 mph /  1 km/h 3.5 mph /  5.6 km/h 53 % 0.00 in /  0 mm
13:25 95.8 °F /  35.4 °C 75.9 °F /  24.4 °C 29.90 in /  1012.4 hPa WNW 2.0 mph /  3.2 km/h 5.8 mph /  9.3 km/h 53 % 0.00 in /  0 mm
13:30 95.6 °F /  35.3 °C 77.4 °F /  25.2 °C 29.90 in /  1012.4 hPa West 0.5 mph /  0.8 km/h 2.3 mph /  3.7 km/h 56 % 0.00 in /  0 mm
13:35 95.4 °F /  35.2 °C 76.7 °F /  24.8 °C 29.90 in /  1012.4 hPa SE 0.4 mph /  0.6 km/h 3.5 mph /  5.6 km/h 55 % 0.00 in /  0 mm
13:40 95.2 °F /  35.1 °C 77.0 °F /  25 °C 29.90 in /  1012.4 hPa West 1.6 mph /  2.6 km/h 3.5 mph /  5.6 km/h 56 % 0.00 in /  0 mm
13:45 94.8 °F /  34.9 °C 76.1 °F /  24.5 °C 29.89 in /  1012.1 hPa South 2.5 mph /  4 km/h 4.0 mph /  6.4 km/h 55 % 0.00 in /  0 mm
13:50 94.4 °F /  34.7 °C 76.3 °F /  24.6 °C 29.90 in /  1012.4 hPa West 2.1 mph /  3.4 km/h 3.5 mph /  5.6 km/h 56 % 0.00 in /  0 mm
13:55 94.1 °F /  34.5 °C 76.5 °F /  24.7 °C 29.89 in /  1012.1 hPa Calm   1.2 mph /  1.9 km/h 57 % 0.00 in /  0 mm
14:00 93.8 °F /  34.3 °C 75.7 °F /  24.3 °C 29.89 in /  1012.1 hPa WSW 1.0 mph /  1.6 km/h 3.5 mph /  5.6 km/h 56 % 0.00 in /  0 mm
14:05 93.7 °F /  34.3 °C 76.2 °F /  24.6 °C 29.89 in /  1012.1 hPa WSW 2.5 mph /  4 km/h 3.5 mph /  5.6 km/h 57 % 0.00 in /  0 mm
14:10 93.5 °F /  34.2 °C 76.0 °F /  24.4 °C 29.89 in /  1012.1 hPa WSW 0.5 mph /  0.8 km/h 3.5 mph /  5.6 km/h 57 % 0.00 in /  0 mm
14:15 93.4 °F /  34.1 °C 76.4 °F /  24.7 °C 29.89 in /  1012.1 hPa WSW 1.3 mph /  2.1 km/h 3.0 mph /  4.8 km/h 58 % 0.00 in /  0 mm
14:20 93.3 °F /  34.1 °C 76.3 °F /  24.6 °C 29.89 in /  1012.1 hPa WSW 0.7 mph /  1.1 km/h 3.5 mph /  5.6 km/h 58 % 0.00 in /  0 mm
14:25 93.3 °F /  34.1 °C 76.3 °F /  24.6 °C 29.89 in /  1012.1 hPa West 1.1 mph /  1.8 km/h 2.3 mph /  3.7 km/h 58 % 0.00 in /  0 mm
14:30 93.5 °F /  34.2 °C 77.5 °F /  25.3 °C 29.89 in /  1012.1 hPa West 0.4 mph /  0.6 km/h 3.5 mph /  5.6 km/h 60 % 0.00 in /  0 mm
14:35 93.7 °F /  34.3 °C 76.2 °F /  24.6 °C 29.89 in /  1012.1 hPa SW 2.9 mph /  4.7 km/h 4.0 mph /  6.4 km/h 57 % 0.00 in /  0 mm
14:40 93.8 °F /  34.3 °C 76.8 °F /  24.9 °C 29.89 in /  1012.1 hPa Calm   1.2 mph /  1.9 km/h 58 % 0.00 in /  0 mm
14:45 93.8 °F /  34.3 °C 76.8 °F /  24.9 °C 29.89 in /  1012.1 hPa West 1.5 mph /  2.4 km/h 3.5 mph /  5.6 km/h 58 % 0.00 in /  0 mm
14:50 93.6 °F /  34.2 °C 76.6 °F /  24.8 °C 29.89 in /  1012.1 hPa West 1.0 mph /  1.6 km/h 3.5 mph /  5.6 km/h 58 % 0.00 in /  0 mm
14:55 93.4 °F /  34.1 °C 76.4 °F /  24.7 °C 29.90 in /  1012.4 hPa West 2.1 mph /  3.4 km/h 3.5 mph /  5.6 km/h 58 % 0.00 in /  0 mm
15:00 93.3 °F /  34.1 °C 75.8 °F /  24.3 °C 29.90 in /  1012.4 hPa WNW 1.1 mph /  1.8 km/h 3.5 mph /  5.6 km/h 57 % 0.00 in /  0 mm
15:05 93.3 °F /  34.1 °C 75.8 °F /  24.3 °C 29.90 in /  1012.4 hPa West 4.4 mph /  7.1 km/h 6.9 mph /  11.1 km/h 57 % 0.00 in /  0 mm
15:10 93.4 °F /  34.1 °C 76.4 °F /  24.7 °C 29.89 in /  1012.1 hPa WNW 3.5 mph /  5.6 km/h 5.8 mph /  9.3 km/h 58 % 0.00 in /  0 mm
15:15 93.4 °F /  34.1 °C 75.9 °F /  24.4 °C 29.89 in /  1012.1 hPa NW 1.9 mph /  3.1 km/h 6.9 mph /  11.1 km/h 57 % 0.00 in /  0 mm
15:20 93.4 °F /  34.1 °C 76.4 °F /  24.7 °C 29.89 in /  1012.1 hPa WSW 0.5 mph /  0.8 km/h 3.5 mph /  5.6 km/h 58 % 0.00 in /  0 mm
15:25 93.1 °F /  33.9 °C 75.6 °F /  24.2 °C 29.89 in /  1012.1 hPa NW 1.7 mph /  2.7 km/h 4.6 mph /  7.4 km/h 57 % 0.00 in /  0 mm
15:30 92.9 °F /  33.8 °C 75.9 °F /  24.4 °C 29.89 in /  1012.1 hPa WNW 1.7 mph /  2.7 km/h 4.6 mph /  7.4 km/h 58 % 0.00 in /  0 mm
15:35 92.5 °F /  33.6 °C 75.6 °F /  24.2 °C 29.89 in /  1012.1 hPa WSW 3.7 mph /  6 km/h 5.8 mph /  9.3 km/h 58 % 0.00 in /  0 mm
15:40 92.2 °F /  33.4 °C 75.3 °F /  24.1 °C 29.89 in /  1012.1 hPa WNW 1.7 mph /  2.7 km/h 4.6 mph /  7.4 km/h 58 % 0.00 in /  0 mm
15:45 91.9 °F /  33.3 °C 76.0 °F /  24.4 °C 29.89 in /  1012.1 hPa West 0.7 mph /  1.1 km/h 3.5 mph /  5.6 km/h 60 % 0.00 in /  0 mm
15:50 91.7 °F /  33.2 °C 76.3 °F /  24.6 °C 29.89 in /  1012.1 hPa Calm   6.0 mph /  9.7 km/h 61 % 0.00 in /  0 mm
15:55 91.5 °F /  33.1 °C 76.6 °F /  24.8 °C 29.88 in /  1011.7 hPa Calm   2.0 mph /  3.2 km/h 62 % 0.00 in /  0 mm
16:01 91.3 °F /  32.9 °C 76.9 °F /  24.9 °C 29.88 in /  1011.7 hPa WSW 1.2 mph /  1.9 km/h 2.3 mph /  3.7 km/h 63 % 0.00 in /  0 mm
16:06 91.2 °F /  32.9 °C 76.4 °F /  24.7 °C 29.88 in /  1011.7 hPa WSW 0.1 mph /  0.2 km/h 2.3 mph /  3.7 km/h 62 % 0.00 in /  0 mm
16:11 91.1 °F /  32.8 °C 76.7 °F /  24.8 °C 29.88 in /  1011.7 hPa Calm   1.2 mph /  1.9 km/h 63 % 0.00 in /  0 mm
16:16 91.0 °F /  32.8 °C 76.2 °F /  24.6 °C 29.88 in /  1011.7 hPa Calm     62 % 0.00 in /  0 mm
16:21 90.9 °F /  32.7 °C 77.5 °F /  25.3 °C 29.88 in /  1011.7 hPa NW 0.3 mph /  0.5 km/h 2.3 mph /  3.7 km/h 65 % 0.00 in /  0 mm
16:26 90.4 °F /  32.4 °C 74.1 °F /  23.4 °C 29.89 in /  1012.1 hPa North 2.0 mph /  3.2 km/h 4.6 mph /  7.4 km/h 59 % 0.00 in /  0 mm
16:31 89.7 °F /  32.1 °C 74.0 °F /  23.3 °C 29.89 in /  1012.1 hPa East 0.1 mph /  0.2 km/h 3.5 mph /  5.6 km/h 60 % 0.00 in /  0 mm
16:36 88.9 °F /  31.6 °C 73.2 °F /  22.9 °C 29.89 in /  1012.1 hPa Calm   2.3 mph /  3.7 km/h 60 % 0.00 in /  0 mm
16:41 88.2 °F /  31.2 °C 74.0 °F /  23.3 °C 29.89 in /  1012.1 hPa NNE 0.3 mph /  0.5 km/h 1.2 mph /  1.9 km/h 63 % 0.00 in /  0 mm
16:46 87.4 °F /  30.8 °C 73.7 °F /  23.2 °C 29.89 in /  1012.1 hPa Calm     64 % 0.00 in /  0 mm
16:51 86.4 °F /  30.2 °C 72.8 °F /  22.7 °C 29.89 in /  1012.1 hPa NW 0.1 mph /  0.2 km/h 1.2 mph /  1.9 km/h 64 % 0.00 in /  0 mm
16:56 85.6 °F /  29.8 °C 72.5 °F /  22.5 °C 29.89 in /  1012.1 hPa North 2.9 mph /  4.7 km/h 4.0 mph /  6.4 km/h 65 % 0.00 in /  0 mm
17:01 84.9 °F /  29.4 °C 71.4 °F /  21.9 °C 29.90 in /  1012.4 hPa NE 0.3 mph /  0.5 km/h 1.2 mph /  1.9 km/h 64 % 0.00 in /  0 mm
17:03 84.7 °F /  29.3 °C 71.6 °F /  22 °C 29.90 in /  1012.4 hPa Calm   1.2 mph /  1.9 km/h 65 % 0.00 in /  0 mm
17:08 84.3 °F /  29.1 °C 72.1 °F /  22.3 °C 29.90 in /  1012.4 hPa NNE 0.8 mph /  1.3 km/h 3.5 mph /  5.6 km/h 67 % 0.00 in /  0 mm
17:13 83.8 °F /  28.8 °C 70.8 °F /  21.6 °C 29.90 in /  1012.4 hPa NE 1.8 mph /  2.9 km/h 3.5 mph /  5.6 km/h 65 % 0.00 in /  0 mm
17:18 83.3 °F /  28.5 °C 70.8 °F /  21.6 °C 29.91 in /  1012.8 hPa WNW 2.6 mph /  4.2 km/h 4.6 mph /  7.4 km/h 66 % 0.00 in /  0 mm
17:23 83.0 °F /  28.3 °C 70.9 °F /  21.6 °C 29.94 in /  1013.8 hPa NE 6.4 mph /  10.3 km/h 15.0 mph /  24.1 km/h 67 % 0.00 in /  0 mm
17:28 81.4 °F /  27.4 °C 71.9 °F /  22.2 °C 29.94 in /  1013.8 hPa North 9.8 mph /  15.8 km/h 13.8 mph /  22.2 km/h 73 % 0.00 in /  0 mm
17:33 79.4 °F /  26.3 °C 71.6 °F /  22 °C 29.93 in /  1013.4 hPa NNW 8.7 mph /  14 km/h 15.0 mph /  24.1 km/h 77 % 0.01 in /  0.25 mm
17:38 78.1 °F /  25.6 °C 71.4 °F /  21.9 °C 29.93 in /  1013.4 hPa NNW 6.5 mph /  10.5 km/h 13.0 mph /  20.9 km/h 80 % 0.01 in /  0.25 mm
17:43 76.7 °F /  24.8 °C 71.1 °F /  21.7 °C 29.93 in /  1013.4 hPa NNW 4.6 mph /  7.4 km/h 11.5 mph /  18.5 km/h 83 % 0.02 in /  0.51 mm
17:48 76.0 °F /  24.4 °C 71.2 °F /  21.8 °C 29.94 in /  1013.8 hPa NNE 4.2 mph /  6.8 km/h 8.1 mph /  13 km/h 85 % 0.02 in /  0.51 mm
17:53 75.5 °F /  24.2 °C 71.0 °F /  21.7 °C 29.93 in /  1013.4 hPa ENE 1.9 mph /  3.1 km/h 5.0 mph /  8 km/h 86 % 0.02 in /  0.51 mm
17:58 75.3 °F /  24.1 °C 70.8 °F /  21.6 °C 29.93 in /  1013.4 hPa NNE 1.6 mph /  2.6 km/h 2.3 mph /  3.7 km/h 86 % 0.02 in /  0.51 mm
18:03 74.9 °F /  23.8 °C 70.4 °F /  21.3 °C 29.93 in /  1013.4 hPa NNE 1.1 mph /  1.8 km/h 2.3 mph /  3.7 km/h 86 % 0.02 in /  0.51 mm
18:08 74.7 °F /  23.7 °C 70.6 °F /  21.4 °C 29.93 in /  1013.4 hPa Calm   1.2 mph /  1.9 km/h 87 % 0.02 in /  0.51 mm
18:13 74.5 °F /  23.6 °C 70.4 °F /  21.3 °C 29.93 in /  1013.4 hPa Calm     87 % 0.02 in /  0.51 mm
18:18 74.4 °F /  23.6 °C 70.6 °F /  21.4 °C 29.92 in /  1013.1 hPa Calm     88 % 0.02 in /  0.51 mm
18:23 74.3 °F /  23.5 °C 70.8 °F /  21.6 °C 29.92 in /  1013.1 hPa Calm   1.2 mph /  1.9 km/h 89 % 0.02 in /  0.51 mm
18:29 74.1 °F /  23.4 °C 71.0 °F /  21.7 °C 29.92 in /  1013.1 hPa Calm     90 % 0.02 in /  0.51 mm
18:34 74.0 °F /  23.3 °C 70.9 °F /  21.6 °C 29.92 in /  1013.1 hPa Calm     90 % 0.01 in /  0.25 mm
18:39 74.0 °F /  23.3 °C 70.9 °F /  21.6 °C 29.93 in /  1013.4 hPa Calm     90 % 0.01 in /  0.25 mm
18:44 74.0 °F /  23.3 °C 71.2 °F /  21.8 °C 29.93 in /  1013.4 hPa Calm     91 % 0.00 in /  0 mm
18:49 73.9 °F /  23.3 °C 71.1 °F /  21.7 °C 29.93 in /  1013.4 hPa WNW 0.1 mph /  0.2 km/h 1.2 mph /  1.9 km/h 91 % 0.00 in /  0 mm
18:54 73.8 °F /  23.2 °C 71.3 °F /  21.8 °C 29.93 in /  1013.4 hPa SE 0.6 mph /  1 km/h 3.5 mph /  5.6 km/h 92 % 0.00 in /  0 mm
18:59 73.7 °F /  23.2 °C 70.9 °F /  21.6 °C 29.93 in /  1013.4 hPa SE 1.7 mph /  2.7 km/h 3.5 mph /  5.6 km/h 91 % 0.00 in /  0 mm
19:04 73.7 °F /  23.2 °C 71.2 °F /  21.8 °C 29.93 in /  1013.4 hPa ESE 0.8 mph /  1.3 km/h 2.3 mph /  3.7 km/h 92 % 0.00 in /  0 mm
19:09 73.7 °F /  23.2 °C 71.2 °F /  21.8 °C 29.93 in /  1013.4 hPa ESE 1.1 mph /  1.8 km/h 3.0 mph /  4.8 km/h 92 % 0.00 in /  0 mm
19:14 73.7 °F /  23.2 °C 71.2 °F /  21.8 °C 29.94 in /  1013.8 hPa SSE 0.1 mph /  0.2 km/h 2.3 mph /  3.7 km/h 92 % 0.00 in /  0 mm
19:19 73.7 °F /  23.2 °C 71.2 °F /  21.8 °C 29.94 in /  1013.8 hPa Calm     92 % 0.00 in /  0 mm
19:24 73.7 °F /  23.2 °C 71.2 °F /  21.8 °C 29.94 in /  1013.8 hPa Calm   1.2 mph /  1.9 km/h 92 % 0.00 in /  0 mm
19:29 73.6 °F /  23.1 °C 71.1 °F /  21.7 °C 29.94 in /  1013.8 hPa Calm     92 % 0.00 in /  0 mm
19:34 73.6 °F /  23.1 °C 71.1 °F /  21.7 °C 29.95 in /  1014.1 hPa Calm     92 % 0.00 in /  0 mm
19:39 73.6 °F /  23.1 °C 71.1 °F /  21.7 °C 29.95 in /  1014.1 hPa Calm     92 % 0.00 in /  0 mm
19:45 73.6 °F /  23.1 °C 71.1 °F /  21.7 °C 29.95 in /  1014.1 hPa Calm     92 % 0.00 in /  0 mm
19:50 73.6 °F /  23.1 °C 71.1 °F /  21.7 °C 29.95 in /  1014.1 hPa SSE 0.8 mph /  1.3 km/h 1.2 mph /  1.9 km/h 92 % 0.00 in /  0 mm
19:55 73.7 °F /  23.2 °C 71.2 °F /  21.8 °C 29.95 in /  1014.1 hPa Calm     92 % 0.00 in /  0 mm
20:00 73.6 °F /  23.1 °C 71.1 °F /  21.7 °C 29.96 in /  1014.4 hPa Calm     92 % 0.00 in /  0 mm
20:05 73.6 °F /  23.1 °C 71.1 °F /  21.7 °C 29.95 in /  1014.1 hPa Calm     92 % 0.00 in /  0 mm
20:10 73.6 °F /  23.1 °C 71.1 °F /  21.7 °C 29.96 in /  1014.4 hPa Calm     92 % 0.00 in /  0 mm
20:11 73.6 °F /  23.1 °C 71.1 °F /  21.7 °C 29.96 in /  1014.4 hPa Calm     92 % 0.00 in /  0 mm
20:16 73.6 °F /  23.1 °C 71.1 °F /  21.7 °C 29.96 in /  1014.4 hPa Calm     92 % 0.00 in /  0 mm
20:21 73.6 °F /  23.1 °C 71.1 °F /  21.7 °C 29.97 in /  1014.8 hPa Calm     92 % 0.00 in /  0 mm
20:26 73.7 °F /  23.2 °C 71.5 °F /  21.9 °C 29.97 in /  1014.8 hPa Calm     93 % 0.00 in /  0 mm
20:32 73.7 °F /  23.2 °C 71.5 °F /  21.9 °C 29.97 in /  1014.8 hPa Calm   1.2 mph /  1.9 km/h 93 % 0.00 in /  0 mm
20:37 73.7 °F /  23.2 °C 71.5 °F /  21.9 °C 29.97 in /  1014.8 hPa Calm   1.2 mph /  1.9 km/h 93 % 0.00 in /  0 mm
20:42 73.7 °F /  23.2 °C 71.5 °F /  21.9 °C 29.97 in /  1014.8 hPa Calm     93 % 0.00 in /  0 mm
20:47 73.8 °F /  23.2 °C 71.6 °F /  22 °C 29.97 in /  1014.8 hPa Calm     93 % 0.00 in /  0 mm
20:52 73.8 °F /  23.2 °C 72.0 °F /  22.2 °C 29.97 in /  1014.8 hPa Calm     94 % 0.00 in /  0 mm
20:57 73.9 °F /  23.3 °C 72.1 °F /  22.3 °C 29.97 in /  1014.8 hPa Calm     94 % 0.00 in /  0 mm
21:02 73.8 °F /  23.2 °C 72.0 °F /  22.2 °C 29.97 in /  1014.8 hPa Calm     94 % 0.00 in /  0 mm
21:07 73.8 °F /  23.2 °C 72.0 °F /  22.2 °C 29.98 in /  1015.1 hPa Calm     94 % 0.00 in /  0 mm
21:12 73.8 °F /  23.2 °C 72.0 °F /  22.2 °C 29.97 in /  1014.8 hPa Calm     94 % 0.00 in /  0 mm
21:17 73.8 °F /  23.2 °C 72.0 °F /  22.2 °C 29.98 in /  1015.1 hPa SSE 0.9 mph /  1.4 km/h 3.5 mph /  5.6 km/h 94 % 0.00 in /  0 mm
21:22 73.8 °F /  23.2 °C 72.0 °F /  22.2 °C 29.98 in /  1015.1 hPa Calm     94 % 0.00 in /  0 mm
21:27 73.8 °F /  23.2 °C 72.0 °F /  22.2 °C 29.98 in /  1015.1 hPa Calm     94 % 0.00 in /  0 mm
21:32 73.7 °F /  23.2 °C 71.9 °F /  22.2 °C 29.98 in /  1015.1 hPa Calm     94 % 0.00 in /  0 mm
21:37 73.7 °F /  23.2 °C 71.9 °F /  22.2 °C 29.98 in /  1015.1 hPa SSE 0.5 mph /  0.8 km/h 1.2 mph /  1.9 km/h 94 % 0.00 in /  0 mm
21:42 73.7 °F /  23.2 °C 71.9 °F /  22.2 °C 29.98 in /  1015.1 hPa Calm     94 % 0.00 in /  0 mm
21:47 73.6 °F /  23.1 °C 71.4 °F /  21.9 °C 29.98 in /  1015.1 hPa SSE 0.9 mph /  1.4 km/h 1.2 mph /  1.9 km/h 93 % 0.00 in /  0 mm
21:52 73.5 °F /  23.1 °C 71.7 °F /  22.1 °C 29.98 in /  1015.1 hPa Calm     94 % 0.00 in /  0 mm
21:58 73.5 °F /  23.1 °C 71.7 °F /  22.1 °C 29.98 in /  1015.1 hPa SSE 0.1 mph /  0.2 km/h 3.5 mph /  5.6 km/h 94 % 0.00 in /  0 mm
22:03 73.4 °F /  23 °C 71.3 °F /  21.8 °C 29.98 in /  1015.1 hPa Calm     93 % 0.00 in /  0 mm
22:08 73.4 °F /  23 °C 71.3 °F /  21.8 °C 29.98 in /  1015.1 hPa Calm     93 % 0.00 in /  0 mm
22:13 73.3 °F /  22.9 °C 71.2 °F /  21.8 °C 29.98 in /  1015.1 hPa SSE 0.1 mph /  0.2 km/h 1.2 mph /  1.9 km/h 93 % 0.00 in /  0 mm
22:18 73.2 °F /  22.9 °C 71.1 °F /  21.7 °C 29.98 in /  1015.1 hPa Calm   1.2 mph /  1.9 km/h 93 % 0.00 in /  0 mm
22:23 73.2 °F /  22.9 °C 71.1 °F /  21.7 °C 29.97 in /  1014.8 hPa Calm   1.2 mph /  1.9 km/h 93 % 0.00 in /  0 mm
22:28 73.1 °F /  22.8 °C 71.0 °F /  21.7 °C 29.97 in /  1014.8 hPa SSE 0.3 mph /  0.5 km/h 1.2 mph /  1.9 km/h 93 % 0.00 in /  0 mm
22:33 72.9 °F /  22.7 °C 70.8 °F /  21.6 °C 29.98 in /  1015.1 hPa ENE 2.6 mph /  4.2 km/h 3.5 mph /  5.6 km/h 93 % 0.00 in /  0 mm
22:38 72.5 °F /  22.5 °C 70.0 °F /  21.1 °C 29.98 in /  1015.1 hPa East 2.3 mph /  3.7 km/h 4.6 mph /  7.4 km/h 92 % 0.00 in /  0 mm
22:43 72.1 °F /  22.3 °C 69.3 °F /  20.7 °C 29.99 in /  1015.5 hPa East 2.6 mph /  4.2 km/h 3.5 mph /  5.6 km/h 91 % 0.00 in /  0 mm
22:48 71.6 °F /  22 °C 68.8 °F /  20.4 °C 29.99 in /  1015.5 hPa ENE 3.1 mph /  5 km/h 4.6 mph /  7.4 km/h 91 % 0.00 in /  0 mm
22:53 71.3 °F /  21.8 °C 68.5 °F /  20.3 °C 29.99 in /  1015.5 hPa ESE 3.2 mph /  5.1 km/h 5.0 mph /  8 km/h 91 % 0.00 in /  0 mm
22:58 71.0 °F /  21.7 °C 68.2 °F /  20.1 °C 29.99 in /  1015.5 hPa ENE 3.7 mph /  6 km/h 5.8 mph /  9.3 km/h 91 % 0.00 in /  0 mm
23:03 70.7 °F /  21.5 °C 68.3 °F /  20.2 °C 30.00 in /  1015.8 hPa ENE 3.4 mph /  5.5 km/h 4.6 mph /  7.4 km/h 92 % 0.00 in /  0 mm
23:08 70.5 °F /  21.4 °C 68.1 °F /  20.1 °C 30.00 in /  1015.8 hPa East 2.8 mph /  4.5 km/h 3.5 mph /  5.6 km/h 92 % 0.00 in /  0 mm
23:13 70.3 °F /  21.3 °C 67.9 °F /  19.9 °C 30.01 in /  1016.1 hPa East 2.5 mph /  4 km/h 4.6 mph /  7.4 km/h 92 % 0.00 in /  0 mm
23:18 70.1 °F /  21.2 °C 67.7 °F /  19.8 °C 30.01 in /  1016.1 hPa East 2.6 mph /  4.2 km/h 4.6 mph /  7.4 km/h 92 % 0.00 in /  0 mm
23:23 69.9 °F /  21.1 °C 67.5 °F /  19.7 °C 30.01 in /  1016.1 hPa East 2.7 mph /  4.3 km/h 4.6 mph /  7.4 km/h 92 % 0.00 in /  0 mm
23:28 69.7 °F /  20.9 °C 67.3 °F /  19.6 °C 30.01 in /  1016.1 hPa East 1.6 mph /  2.6 km/h 3.5 mph /  5.6 km/h 92 % 0.00 in /  0 mm
23:33 69.5 °F /  20.8 °C 67.4 °F /  19.7 °C 30.01 in /  1016.1 hPa East 2.0 mph /  3.2 km/h 4.6 mph /  7.4 km/h 93 % 0.00 in /  0 mm
23:39 69.3 °F /  20.7 °C 67.2 °F /  19.6 °C 30.02 in /  1016.5 hPa East 2.2 mph /  3.5 km/h 4.6 mph /  7.4 km/h 93 % 0.00 in /  0 mm
23:44 69.2 °F /  20.7 °C 67.1 °F /  19.5 °C 30.02 in /  1016.5 hPa East 2.0 mph /  3.2 km/h 3.5 mph /  5.6 km/h 93 % 0.00 in /  0 mm
23:49 69.1 °F /  20.6 °C 67.0 °F /  19.4 °C 30.01 in /  1016.1 hPa ESE 2.1 mph /  3.4 km/h 3.5 mph /  5.6 km/h 93 % 0.00 in /  0 mm
23:54 69.0 °F /  20.6 °C 66.9 °F /  19.4 °C 30.01 in /  1016.1 hPa ESE 2.2 mph /  3.5 km/h 3.5 mph /  5.6 km/h 93 % 0.00 in /  0 mm
23:59 68.8 °F /  20.4 °C 66.7 °F /  19.3 °C 30.01 in /  1016.1 hPa East 2.2 mph /  3.5 km/h 3.5 mph /  5.6 km/h 93 % 0.00 in /  0 mm
Crab Meadow Weather
Compliments of Weather Underground - 3 mb

Script developed by  Jim McMurry - jmcmurry@mwt.net Adapted for the template by  Wim van der Kuil - Leuven-Template.eu

Astronomy: Neptune was discovered in 1846 (over 150 years ago). Since that time it has still yet to make a complete orbit around the sun, because one Neptune year lasts 165 Earth years!